createdAt,value
2019-06-20T00:01:13.772Z,24.33
2019-06-20T00:03:42.533Z,25.07
2019-06-20T00:06:13.073Z,25.83
2019-06-20T00:08:42.590Z,26.07
2019-06-20T00:11:21.144Z,26.17
2019-06-20T00:14:02.852Z,27.03
2019-06-20T00:16:52.683Z,26.63
2019-06-20T00:19:21.277Z,27.97
2019-06-20T00:22:01.898Z,29.17
2019-06-20T00:24:30.853Z,28.17
2019-06-20T00:27:11.601Z,28.20
2019-06-20T00:29:52.838Z,28.23
2019-06-20T00:32:22.316Z,26.47
2019-06-20T00:34:51.033Z,28.67
2019-06-20T00:37:19.626Z,27.73
2019-06-20T00:39:48.402Z,28.47
2019-06-20T00:42:18.412Z,28.60
2019-06-20T00:44:46.958Z,27.37
2019-06-20T00:47:15.666Z,27.60
2019-06-20T00:49:45.532Z,27.80
2019-06-20T00:52:14.291Z,28.60
2019-06-20T00:54:43.841Z,27.50
2019-06-20T00:57:13.632Z,28.07
2019-06-20T00:59:42.824Z,28.43
2019-06-20T01:02:11.509Z,27.13
2019-06-20T01:04:40.317Z,28.10
2019-06-20T01:07:09.335Z,28.33
2019-06-20T01:09:37.964Z,29.03
2019-06-20T01:12:06.647Z,27.87
2019-06-20T01:14:35.322Z,28.80
2019-06-20T01:17:05.273Z,30.37
2019-06-20T01:19:33.872Z,29.10
2019-06-20T01:22:04.736Z,29.20
2019-06-20T01:24:35.472Z,26.50
2019-06-20T01:27:04.089Z,26.77
2019-06-20T01:29:32.692Z,26.60
2019-06-20T01:32:01.415Z,25.83
2019-06-20T01:34:33.394Z,27.37
2019-06-20T01:37:02.033Z,26.77
2019-06-20T01:39:30.769Z,25.63
2019-06-20T01:41:59.532Z,25.47
2019-06-20T01:44:28.110Z,24.03
2019-06-20T01:46:56.824Z,23.57
2019-06-20T01:49:25.468Z,23.03
2019-06-20T01:51:54.218Z,25.77
2019-06-20T01:54:22.881Z,25.30
2019-06-20T01:56:53.554Z,24.60
2019-06-20T01:59:22.318Z,25.53
2019-06-20T02:01:51.043Z,24.87
2019-06-20T02:04:19.673Z,24.53
2019-06-20T02:06:48.440Z,26.07
2019-06-20T02:09:17.090Z,24.87
2019-06-20T02:11:46.500Z,25.27
2019-06-20T02:14:16.163Z,24.03
2019-06-20T02:16:44.814Z,24.17
2019-06-20T02:19:14.672Z,23.87
2019-06-20T02:21:43.288Z,23.80
2019-06-20T02:24:12.023Z,24.77
2019-06-20T02:26:42.123Z,24.73
2019-06-20T02:29:13.527Z,24.87
2019-06-20T02:31:42.424Z,25.47
2019-06-20T02:34:10.896Z,24.93
2019-06-20T02:36:39.851Z,25.97
2019-06-20T02:39:09.306Z,24.10
2019-06-20T02:41:38.216Z,25.77
2019-06-20T02:44:24.701Z,23.47
2019-06-20T02:46:39.946Z,24.10
2019-06-20T02:49:08.495Z,24.20
2019-06-20T02:51:37.682Z,24.17
2019-06-20T02:54:06.557Z,22.97
2019-06-20T02:56:35.139Z,22.63
2019-06-20T02:59:05.956Z,23.03
2019-06-20T03:01:34.676Z,24.07
2019-06-20T03:04:04.614Z,23.47
2019-06-20T03:06:33.240Z,23.20
2019-06-20T03:09:01.876Z,22.90
2019-06-20T03:11:30.546Z,22.73
2019-06-20T03:13:59.216Z,22.27
2019-06-20T03:16:27.958Z,23.10
2019-06-20T03:18:56.600Z,21.37
2019-06-20T03:21:25.282Z,21.60
2019-06-20T03:23:54.002Z,21.90
2019-06-20T03:26:23.883Z,21.90
2019-06-20T03:28:52.616Z,20.73
2019-06-20T03:31:21.301Z,21.37
2019-06-20T03:33:49.949Z,21.90
2019-06-20T03:36:18.696Z,21.30
2019-06-20T03:38:47.434Z,22.03
2019-06-20T03:41:16.010Z,22.47
2019-06-20T03:43:46.745Z,20.93
2019-06-20T03:46:15.477Z,20.70
2019-06-20T03:48:44.123Z,21.73
2019-06-20T03:51:12.790Z,20.23
2019-06-20T03:53:42.479Z,20.67
2019-06-20T03:56:12.218Z,19.17
2019-06-20T03:58:40.970Z,18.47
2019-06-20T04:01:09.655Z,18.40
2019-06-20T04:03:38.280Z,18.87
2019-06-20T04:06:06.960Z,17.93
2019-06-20T04:08:35.675Z,17.80
2019-06-20T04:11:06.399Z,17.80
2019-06-20T04:13:35.104Z,17.13
2019-06-20T04:16:03.944Z,18.50
2019-06-20T04:18:32.440Z,17.30
2019-06-20T04:21:01.123Z,17.97
2019-06-20T04:23:29.866Z,17.27
2019-06-20T04:25:58.491Z,16.93
2019-06-20T04:28:27.183Z,17.43
2019-06-20T04:30:55.972Z,18.20
2019-06-20T04:33:24.556Z,16.33
2019-06-20T04:35:53.388Z,17.83
2019-06-20T04:38:21.980Z,15.60
2019-06-20T04:40:50.622Z,16.67
2019-06-20T04:43:20.112Z,16.30
2019-06-20T04:46:06.926Z,15.43
2019-06-20T04:48:35.520Z,14.77
2019-06-20T04:51:04.091Z,14.50
2019-06-20T04:53:32.951Z,14.13
2019-06-20T04:56:05.591Z,14.10
2019-06-20T04:58:33.131Z,14.80
2019-06-20T05:01:01.883Z,14.17
2019-06-20T05:03:30.813Z,13.40
2019-06-20T05:06:01.715Z,12.47
2019-06-20T05:08:30.373Z,13.53
2019-06-20T05:10:59.912Z,12.60
2019-06-20T05:13:28.527Z,13.07
2019-06-20T05:15:57.300Z,13.60
2019-06-20T05:18:27.124Z,13.30
2019-06-20T05:20:55.826Z,13.70
2019-06-20T05:23:24.540Z,13.63
2019-06-20T05:25:54.105Z,13.00
2019-06-20T05:28:22.700Z,13.67
2019-06-20T05:30:53.967Z,14.40
2019-06-20T05:33:22.557Z,14.00
2019-06-20T05:35:52.076Z,14.10
2019-06-20T05:38:20.795Z,14.83
2019-06-20T05:40:49.443Z,14.27
2019-06-20T05:43:18.087Z,14.73
2019-06-20T05:46:05.475Z,14.33
2019-06-20T05:48:22.014Z,14.80
2019-06-20T05:50:51.549Z,15.13
2019-06-20T05:53:20.223Z,14.80
2019-06-20T05:55:48.881Z,14.63
2019-06-20T05:58:17.589Z,14.97
2019-06-20T06:00:46.389Z,14.50
2019-06-20T06:03:15.984Z,13.67
2019-06-20T06:05:44.943Z,13.80
2019-06-20T06:08:16.307Z,13.83
2019-06-20T06:10:45.105Z,12.97
2019-06-20T06:13:13.782Z,14.73
2019-06-20T06:15:43.589Z,14.63
2019-06-20T06:18:12.386Z,14.23
2019-06-20T06:20:44.643Z,15.33
2019-06-20T06:23:11.487Z,14.57
2019-06-20T06:25:42.166Z,14.73
2019-06-20T06:28:12.434Z,14.23
2019-06-20T06:30:41.413Z,13.87
2019-06-20T06:33:11.084Z,14.53
2019-06-20T06:35:39.860Z,14.80
2019-06-20T06:38:21.915Z,15.07
2019-06-20T06:40:47.434Z,14.50
2019-06-20T06:43:17.267Z,15.37
2019-06-20T06:45:46.022Z,15.23
2019-06-20T06:48:20.461Z,15.17
2019-06-20T06:50:49.221Z,14.13
2019-06-20T06:53:23.950Z,14.63
2019-06-20T06:55:54.711Z,14.43
2019-06-20T06:58:31.238Z,15.20
2019-06-20T07:01:02.819Z,15.30
2019-06-20T07:03:31.351Z,15.50
2019-06-20T07:06:02.210Z,15.07
2019-06-20T07:08:38.212Z,15.20
2019-06-20T07:11:09.010Z,15.83
2019-06-20T07:13:39.708Z,15.03
2019-06-20T07:16:08.549Z,15.13
2019-06-20T07:18:43.996Z,14.53
2019-06-20T07:21:15.009Z,15.70
2019-06-20T07:23:43.924Z,15.03
2019-06-20T07:26:12.602Z,14.60
2019-06-20T07:28:52.217Z,15.30
2019-06-20T07:31:20.937Z,14.87
2019-06-20T07:33:49.729Z,15.63
2019-06-20T07:36:18.737Z,14.20
2019-06-20T07:38:47.412Z,14.20
2019-06-20T07:41:17.884Z,13.13
2019-06-20T07:43:46.493Z,14.60
2019-06-20T07:46:15.177Z,15.13
2019-06-20T07:48:43.752Z,15.37
2019-06-20T07:51:12.440Z,15.30
2019-06-20T07:53:41.437Z,15.40
2019-06-20T07:56:10.302Z,14.40
2019-06-20T07:58:38.945Z,14.47
2019-06-20T08:01:07.753Z,14.37
2019-06-20T08:03:36.354Z,13.53
2019-06-20T08:06:05.131Z,13.70
2019-06-20T08:08:33.732Z,14.00
2019-06-20T08:11:02.368Z,13.93
2019-06-20T08:13:31.040Z,14.43
2019-06-20T08:16:03.210Z,14.50
2019-06-20T08:18:30.026Z,14.50
2019-06-20T08:20:58.808Z,14.23
2019-06-20T08:23:27.458Z,13.83
2019-06-20T08:25:57.514Z,15.53
2019-06-20T08:28:26.476Z,13.97
2019-06-20T08:30:56.086Z,13.93
2019-06-20T08:33:25.425Z,14.87
2019-06-20T08:35:54.106Z,14.70
2019-06-20T08:38:22.869Z,13.90
2019-06-20T08:40:51.561Z,14.27
2019-06-20T08:43:20.160Z,14.17
2019-06-20T08:45:49.062Z,15.53
2019-06-20T08:48:17.701Z,13.70
2019-06-20T08:50:46.371Z,14.53
2019-06-20T08:53:15.022Z,13.67
2019-06-20T08:55:44.891Z,14.37
2019-06-20T08:58:13.518Z,14.57
2019-06-20T09:00:42.683Z,14.77
2019-06-20T09:03:11.378Z,14.10
2019-06-20T09:05:40.061Z,15.50
2019-06-20T09:08:11.419Z,14.40
2019-06-20T09:10:42.688Z,13.50
2019-06-20T09:13:12.673Z,13.73
2019-06-20T09:15:42.957Z,13.90
2019-06-20T09:18:11.831Z,14.10
2019-06-20T09:20:40.985Z,13.27
2019-06-20T09:23:10.768Z,13.10
2019-06-20T09:25:39.759Z,13.10
2019-06-20T09:28:09.432Z,13.70
2019-06-20T09:30:39.541Z,13.30
2019-06-20T09:33:09.124Z,13.20
2019-06-20T09:35:37.858Z,13.07
2019-06-20T09:38:06.563Z,12.53
2019-06-20T09:40:35.287Z,13.23
2019-06-20T09:43:11.292Z,12.20
2019-06-20T09:45:41.321Z,12.03
2019-06-20T09:48:10.186Z,12.17
2019-06-20T09:50:38.901Z,13.20
2019-06-20T09:53:07.688Z,11.93
2019-06-20T09:55:36.418Z,12.13
2019-06-20T09:58:06.428Z,12.40
2019-06-20T10:00:35.373Z,12.03
2019-06-20T10:03:06.135Z,13.37
2019-06-20T10:05:35.189Z,13.50
2019-06-20T10:08:03.847Z,12.97
2019-06-20T10:10:32.997Z,13.37
2019-06-20T10:13:01.660Z,13.43
2019-06-20T10:15:34.320Z,13.73
2019-06-20T10:18:06.268Z,13.70
2019-06-20T10:20:39.160Z,13.90
2019-06-20T10:23:08.406Z,14.03
2019-06-20T10:25:37.440Z,14.23
2019-06-20T10:28:07.531Z,14.30
2019-06-20T10:30:36.434Z,14.67
2019-06-20T10:33:05.094Z,13.73
2019-06-20T10:35:35.212Z,14.23
2019-06-20T10:38:04.149Z,13.70
2019-06-20T10:40:32.712Z,13.73
2019-06-20T10:43:04.596Z,13.50
2019-06-20T10:45:34.263Z,13.53
2019-06-20T10:48:04.418Z,13.83
2019-06-20T10:50:33.279Z,14.10
2019-06-20T10:53:04.024Z,12.77
2019-06-20T10:55:32.608Z,13.27
2019-06-20T10:58:02.160Z,12.63
2019-06-20T11:00:32.413Z,12.10
2019-06-20T11:03:01.185Z,11.33
2019-06-20T11:05:31.101Z,11.97
2019-06-20T11:07:59.784Z,11.53
2019-06-20T11:10:29.296Z,10.37
2019-06-20T11:12:59.180Z,12.10
2019-06-20T11:15:29.162Z,11.23
2019-06-20T11:17:57.852Z,11.77
2019-06-20T11:20:27.754Z,12.03
2019-06-20T11:22:56.376Z,10.97
2019-06-20T11:25:31.338Z,11.43
2019-06-20T11:27:59.978Z,11.03
2019-06-20T11:30:44.948Z,10.63
2019-06-20T11:33:01.340Z,10.57
2019-06-20T11:35:30.137Z,10.73
2019-06-20T11:38:08.842Z,10.50
2019-06-20T11:40:38.287Z,9.77
2019-06-20T11:43:09.290Z,9.43
2019-06-20T11:45:43.004Z,9.20
2019-06-20T11:48:11.931Z,9.43
2019-06-20T11:50:46.815Z,9.47
2019-06-20T11:53:16.758Z,8.97
2019-06-20T11:55:45.562Z,8.80
2019-06-20T11:58:14.440Z,8.90
2019-06-20T12:01:02.477Z,9.30
2019-06-20T12:03:18.500Z,9.70
2019-06-20T12:05:47.320Z,10.20
2019-06-20T12:08:18.216Z,10.13
2019-06-20T12:10:49.379Z,10.67
2019-06-20T12:13:18.047Z,9.93
2019-06-20T12:15:49.613Z,10.07
2019-06-20T12:18:21.101Z,10.57
2019-06-20T12:20:50.171Z,9.60
2019-06-20T12:23:18.953Z,9.97
2019-06-20T12:25:58.362Z,9.73
2019-06-20T12:28:26.931Z,10.00
2019-06-20T12:30:56.921Z,9.70
2019-06-20T12:33:25.604Z,9.23
2019-06-20T12:35:54.293Z,10.10
2019-06-20T12:38:22.928Z,9.37
2019-06-20T12:40:51.719Z,5.83
2019-06-20T12:43:20.297Z,5.13
2019-06-20T12:45:51.697Z,5.13
2019-06-20T12:48:20.521Z,5.40
2019-06-20T12:50:49.592Z,4.57
2019-06-20T12:53:18.258Z,4.83
2019-06-20T12:55:48.068Z,4.80
2019-06-20T12:58:16.835Z,4.50
2019-06-20T13:00:50.325Z,4.70
2019-06-20T13:03:19.235Z,5.03
2019-06-20T13:05:49.187Z,5.10
2019-06-20T13:08:19.096Z,5.37
2019-06-20T13:10:48.297Z,4.57
2019-06-20T13:13:17.146Z,4.57
2019-06-20T13:15:46.998Z,4.47
2019-06-20T13:18:15.908Z,5.30
2019-06-20T13:20:44.491Z,5.63
2019-06-20T13:23:13.109Z,5.50
2019-06-20T13:25:42.568Z,5.70
2019-06-20T13:28:11.325Z,5.53
2019-06-20T13:30:41.874Z,5.40
2019-06-20T13:33:10.794Z,5.50
2019-06-20T13:35:40.513Z,5.33
2019-06-20T13:38:09.736Z,5.03
2019-06-20T13:40:39.513Z,4.47
2019-06-20T13:43:08.758Z,4.70
2019-06-20T13:45:37.566Z,4.30
2019-06-20T13:48:06.381Z,3.80
2019-06-20T13:50:34.840Z,3.33
2019-06-20T13:53:03.833Z,3.53
2019-06-20T13:55:33.873Z,3.90
2019-06-20T13:58:02.631Z,3.87
2019-06-20T14:00:31.648Z,3.77
2019-06-20T14:03:00.472Z,3.83
2019-06-20T14:05:29.084Z,3.70
2019-06-20T14:07:57.714Z,4.67
2019-06-20T14:10:26.926Z,4.87
2019-06-20T14:12:56.049Z,4.60
2019-06-20T14:15:24.670Z,4.23
2019-06-20T14:17:53.897Z,4.33
2019-06-20T14:20:23.969Z,4.63
2019-06-20T14:22:52.715Z,4.40
2019-06-20T14:25:21.698Z,3.93
2019-06-20T14:27:51.575Z,4.00
2019-06-20T14:30:21.616Z,4.07
2019-06-20T14:32:51.423Z,4.20
2019-06-20T14:35:21.022Z,3.83
2019-06-20T14:37:51.635Z,3.97
2019-06-20T14:40:20.871Z,3.60
2019-06-20T14:42:50.381Z,3.90
2019-06-20T14:45:19.885Z,3.47
2019-06-20T14:47:48.692Z,3.10
2019-06-20T14:50:19.590Z,3.30
2019-06-20T14:52:50.010Z,3.37
2019-06-20T14:55:20.161Z,3.40
2019-06-20T14:57:50.396Z,3.63
2019-06-20T15:00:21.331Z,3.33
2019-06-20T15:02:54.914Z,3.50
2019-06-20T15:05:21.503Z,3.67
2019-06-20T15:07:53.889Z,3.80
2019-06-20T15:10:23.699Z,3.80
2019-06-20T15:12:53.645Z,3.30
2019-06-20T15:15:22.840Z,3.57
2019-06-20T15:17:54.024Z,3.60
2019-06-20T15:20:21.990Z,4.17
2019-06-20T15:22:52.200Z,4.80
2019-06-20T15:25:22.268Z,4.30
2019-06-20T15:27:53.144Z,4.50
2019-06-20T15:30:21.280Z,4.30
2019-06-20T15:33:01.821Z,4.63
2019-06-20T15:35:21.571Z,5.17
2019-06-20T15:37:51.513Z,4.03
2019-06-20T15:40:20.799Z,4.43
2019-06-20T15:42:51.106Z,4.60
2019-06-20T15:45:19.981Z,3.87
2019-06-20T15:47:50.112Z,4.10
2019-06-20T15:50:19.770Z,4.00
2019-06-20T15:52:48.822Z,3.83
2019-06-20T15:55:19.909Z,3.90
2019-06-20T15:57:48.634Z,3.87
2019-06-20T16:00:18.061Z,4.40
2019-06-20T16:02:46.838Z,5.17
2019-06-20T16:05:15.905Z,5.27
2019-06-20T16:07:44.579Z,3.90
2019-06-20T16:10:14.971Z,4.00
2019-06-20T16:12:44.070Z,4.20
2019-06-20T16:15:15.742Z,4.60
2019-06-20T16:17:44.363Z,4.83
2019-06-20T16:20:13.214Z,4.97
2019-06-20T16:22:42.406Z,4.97
2019-06-20T16:25:11.611Z,5.37
2019-06-20T16:27:40.379Z,5.10
2019-06-20T16:30:10.133Z,4.77
2019-06-20T16:32:39.007Z,5.10
2019-06-20T16:35:08.771Z,5.27
2019-06-20T16:37:37.576Z,5.70
2019-06-20T16:40:08.589Z,5.70
2019-06-20T16:42:37.642Z,5.50
2019-06-20T16:45:08.367Z,5.70
2019-06-20T16:47:37.244Z,5.47
2019-06-20T16:50:08.225Z,5.80
2019-06-20T16:52:36.910Z,5.53
2019-06-20T16:55:09.348Z,6.20
2019-06-20T16:57:38.404Z,5.50
2019-06-20T17:00:12.770Z,5.80
2019-06-20T17:02:41.809Z,5.63
2019-06-20T17:05:11.026Z,4.93
2019-06-20T17:07:39.738Z,5.10
2019-06-20T17:10:09.651Z,5.63
2019-06-20T17:12:38.360Z,5.47
2019-06-20T17:15:08.201Z,5.10
2019-06-20T17:17:37.053Z,4.90
2019-06-20T17:20:17.559Z,4.70
2019-06-20T17:22:46.728Z,4.40
2019-06-20T17:25:15.990Z,4.80
2019-06-20T17:27:44.713Z,4.70
2019-06-20T17:30:16.055Z,5.03
2019-06-20T17:32:44.636Z,4.80
2019-06-20T17:35:14.089Z,4.90
2019-06-20T17:37:45.025Z,4.87
2019-06-20T17:40:18.068Z,5.03
2019-06-20T17:42:48.001Z,5.07
2019-06-20T17:45:17.025Z,4.73
2019-06-20T17:47:45.831Z,5.20
2019-06-20T17:50:15.141Z,4.63
2019-06-20T17:52:43.938Z,5.60
2019-06-20T17:55:13.408Z,5.97
2019-06-20T17:57:42.374Z,6.30
2019-06-20T18:00:16.926Z,6.93
2019-06-20T18:02:45.787Z,6.83
2019-06-20T18:05:16.778Z,8.23
2019-06-20T18:07:46.358Z,7.73
2019-06-20T18:10:17.009Z,8.20
2019-06-20T18:12:45.745Z,8.20
2019-06-20T18:15:17.575Z,8.80
2019-06-20T18:17:46.394Z,9.17
2019-06-20T18:20:16.624Z,8.23
2019-06-20T18:22:45.303Z,9.33
2019-06-20T18:25:14.507Z,9.90
2019-06-20T18:27:43.119Z,9.53
2019-06-20T18:30:13.805Z,9.60
2019-06-20T18:32:42.675Z,9.63
2019-06-20T18:35:12.083Z,9.20
2019-06-20T18:37:40.920Z,9.77
2019-06-20T18:40:11.179Z,9.40
2019-06-20T18:42:42.059Z,8.87
2019-06-20T18:45:11.616Z,8.90
2019-06-20T18:47:42.470Z,9.07
2019-06-20T18:50:15.436Z,8.87
2019-06-20T18:52:52.199Z,9.37
2019-06-20T18:55:18.233Z,9.53
2019-06-20T18:57:47.130Z,9.10
2019-06-20T19:00:30.796Z,8.87
2019-06-20T19:02:47.361Z,9.40
2019-06-20T19:05:16.048Z,9.30
2019-06-20T19:07:44.711Z,9.40
2019-06-20T19:10:15.348Z,9.27
2019-06-20T19:12:44.019Z,9.73
2019-06-20T19:15:13.594Z,9.43
2019-06-20T19:17:43.604Z,9.50
2019-06-20T19:20:14.200Z,10.30
2019-06-20T19:22:43.051Z,14.20
2019-06-20T19:25:13.212Z,9.57
2019-06-20T19:27:46.510Z,8.53
2019-06-20T19:30:15.046Z,7.63
2019-06-20T19:32:43.868Z,7.23
2019-06-20T19:35:12.784Z,7.17
2019-06-20T19:37:42.232Z,8.17
2019-06-20T19:40:11.842Z,7.77
2019-06-20T19:42:42.182Z,7.30
2019-06-20T19:45:17.374Z,6.83
2019-06-20T19:47:46.275Z,6.60
2019-06-20T19:50:16.425Z,6.93
2019-06-20T19:52:45.299Z,6.87
2019-06-20T19:55:15.296Z,6.80
2019-06-20T19:57:44.295Z,7.20
2019-06-20T20:00:14.539Z,6.93
2019-06-20T20:02:43.228Z,7.60
2019-06-20T20:05:19.643Z,8.40
2019-06-20T20:07:44.466Z,8.80
2019-06-20T20:10:14.950Z,9.87
2019-06-20T20:12:43.698Z,8.83
2019-06-20T20:15:12.595Z,8.87
2019-06-20T20:17:41.471Z,7.00
2019-06-20T20:20:10.432Z,6.93
2019-06-20T20:22:40.321Z,6.73
2019-06-20T20:25:11.927Z,6.63
2019-06-20T20:27:40.794Z,6.17
2019-06-20T20:30:10.641Z,6.93
2019-06-20T20:32:39.591Z,7.10
2019-06-20T20:35:09.207Z,6.27
2019-06-20T20:37:39.497Z,5.90
2019-06-20T20:40:10.228Z,6.33
2019-06-20T20:42:39.084Z,6.77
2019-06-20T20:45:09.292Z,6.83
2019-06-20T20:47:38.086Z,6.70
2019-06-20T20:50:09.135Z,6.77
2019-06-20T20:52:37.875Z,5.30
2019-06-20T20:55:11.450Z,4.90
2019-06-20T20:57:40.383Z,4.57
2019-06-20T21:00:21.119Z,4.10
2019-06-20T21:02:49.822Z,4.80
2019-06-20T21:05:18.454Z,4.50
2019-06-20T21:07:47.187Z,4.40
2019-06-20T21:10:18.664Z,4.33
2019-06-20T21:12:47.317Z,4.20
2019-06-20T21:15:18.082Z,4.07
2019-06-20T21:17:46.805Z,5.60
2019-06-20T21:20:16.296Z,5.80
2019-06-20T21:22:45.197Z,6.30
2019-06-20T21:25:14.430Z,5.60
2019-06-20T21:27:43.156Z,6.50
2019-06-20T21:30:13.134Z,5.40
2019-06-20T21:32:41.813Z,6.23
2019-06-20T21:35:12.447Z,5.37
2019-06-20T21:37:41.543Z,5.30
2019-06-20T21:40:11.478Z,5.80
2019-06-20T21:42:40.306Z,5.90
2019-06-20T21:45:11.088Z,6.10
2019-06-20T21:47:39.776Z,6.57
2019-06-20T21:50:09.871Z,6.03
2019-06-20T21:52:38.758Z,5.80
2019-06-20T21:55:08.521Z,6.00
2019-06-20T21:57:37.319Z,5.50
2019-06-20T22:00:31.717Z,6.23
2019-06-20T22:03:00.494Z,5.70
2019-06-20T22:05:30.385Z,5.73
2019-06-20T22:07:59.170Z,5.97
2019-06-20T22:10:28.914Z,6.00
2019-06-20T22:12:58.414Z,6.13
2019-06-20T22:15:29.313Z,6.30
2019-06-20T22:17:59.198Z,6.20
2019-06-20T22:20:28.572Z,6.20
2019-06-20T22:22:57.415Z,7.20
2019-06-20T22:25:26.776Z,7.37
2019-06-20T22:27:55.423Z,7.13
2019-06-20T22:30:49.477Z,7.50
2019-06-20T22:33:18.198Z,6.73
2019-06-20T22:35:47.779Z,6.73
2019-06-20T22:38:16.520Z,6.47
2019-06-20T22:40:46.320Z,6.40
2019-06-20T22:43:15.073Z,6.57
2019-06-20T22:45:43.894Z,6.13
2019-06-20T22:48:13.730Z,6.20
2019-06-20T22:50:42.667Z,6.80
2019-06-20T22:53:11.387Z,6.63
2019-06-20T22:55:40.452Z,7.03
2019-06-20T22:58:10.668Z,7.40
2019-06-20T23:00:39.459Z,7.57
2019-06-20T23:03:08.093Z,7.07
2019-06-20T23:05:36.981Z,7.17
2019-06-20T23:08:06.987Z,7.87
2019-06-20T23:10:35.523Z,7.40
2019-06-20T23:13:04.978Z,7.80
2019-06-20T23:15:36.976Z,8.23
2019-06-20T23:18:06.614Z,8.30
2019-06-20T23:20:35.204Z,7.63
2019-06-20T23:23:04.295Z,8.23
2019-06-20T23:25:33.590Z,8.67
2019-06-20T23:28:02.265Z,8.67
2019-06-20T23:30:31.672Z,9.13
2019-06-20T23:33:00.230Z,9.27
2019-06-20T23:35:28.875Z,8.20
2019-06-20T23:37:57.584Z,8.93
2019-06-20T23:40:26.254Z,9.63
2019-06-20T23:42:55.027Z,9.50
2019-06-20T23:45:23.814Z,8.97
2019-06-20T23:47:52.324Z,8.90
2019-06-20T23:50:21.215Z,9.90
2019-06-20T23:52:52.620Z,9.70
2019-06-20T23:55:21.375Z,9.50
2019-06-20T23:57:49.974Z,9.37
